createdAt,value
2022-10-19T00:01:23.590Z,100.00
2022-10-19T00:03:54.189Z,100.00
2022-10-19T00:06:32.147Z,100.00
2022-10-19T00:09:09.632Z,100.00
2022-10-19T00:11:40.653Z,100.00
2022-10-19T00:14:11.538Z,100.00
2022-10-19T00:16:38.777Z,100.00
2022-10-19T00:19:12.147Z,100.00
2022-10-19T00:21:39.550Z,100.00
2022-10-19T00:24:07.560Z,100.00
2022-10-19T00:26:35.083Z,100.00
2022-10-19T00:29:02.390Z,100.00
2022-10-19T00:31:29.433Z,100.00
2022-10-19T00:33:57.981Z,100.00
2022-10-19T00:36:35.310Z,100.00
2022-10-19T00:39:07.440Z,100.00
2022-10-19T00:41:36.553Z,100.00
2022-10-19T00:44:12.422Z,100.00
2022-10-19T00:46:44.051Z,100.00
2022-10-19T00:49:25.860Z,100.00
2022-10-19T00:52:02.578Z,100.00
2022-10-19T00:54:31.850Z,100.00
2022-10-19T00:56:59.855Z,100.00
2022-10-19T00:59:28.405Z,100.00
2022-10-19T01:01:55.756Z,100.00
2022-10-19T01:04:25.914Z,100.00
2022-10-19T01:06:54.424Z,100.00
2022-10-19T01:09:21.382Z,100.00
2022-10-19T01:12:22.531Z,100.00
2022-10-19T01:15:08.285Z,100.00
2022-10-19T01:18:03.627Z,100.00
2022-10-19T01:20:51.927Z,100.00
2022-10-19T01:24:01.427Z,100.00
2022-10-19T01:26:47.111Z,100.00
2022-10-19T01:29:33.502Z,100.00
2022-10-19T01:32:08.859Z,100.00
2022-10-19T01:35:10.922Z,100.00
2022-10-19T01:37:58.539Z,100.00
2022-10-19T01:40:32.919Z,100.00
2022-10-19T01:43:12.896Z,100.00
2022-10-19T01:45:43.580Z,100.00
2022-10-19T01:48:35.526Z,100.00
2022-10-19T01:51:10.726Z,100.00
2022-10-19T01:53:46.554Z,100.00
2022-10-19T01:56:14.915Z,100.00
2022-10-19T01:58:45.586Z,100.00
2022-10-19T02:01:17.131Z,100.00
2022-10-19T02:03:49.841Z,100.00
2022-10-19T02:06:17.252Z,100.00
2022-10-19T02:08:51.141Z,100.00
2022-10-19T02:11:19.952Z,100.00
2022-10-19T02:13:53.806Z,100.00
2022-10-19T02:16:29.390Z,100.00
2022-10-19T02:18:58.301Z,100.00
2022-10-19T02:21:27.154Z,100.00
2022-10-19T02:23:54.747Z,100.00
2022-10-19T02:26:22.089Z,100.00
2022-10-19T02:28:49.880Z,100.00
2022-10-19T02:31:17.185Z,100.00
2022-10-19T02:33:44.233Z,100.00
2022-10-19T02:36:11.183Z,100.00
2022-10-19T02:38:38.205Z,100.00
2022-10-19T02:41:36.628Z,100.00
2022-10-19T02:44:20.353Z,100.00
2022-10-19T02:46:57.381Z,100.00
2022-10-19T02:49:25.637Z,100.00
2022-10-19T02:52:02.675Z,100.00
2022-10-19T02:54:30.002Z,100.00
2022-10-19T02:56:57.378Z,100.00
2022-10-19T02:59:25.246Z,100.00
2022-10-19T03:01:52.582Z,100.00
2022-10-19T03:04:19.549Z,100.00
2022-10-19T03:06:46.886Z,100.00
2022-10-19T03:09:13.905Z,100.00
2022-10-19T03:11:40.796Z,100.00
2022-10-19T03:14:07.828Z,100.00
2022-10-19T03:16:35.108Z,100.00
2022-10-19T03:19:02.098Z,100.00
2022-10-19T03:21:28.984Z,100.00
2022-10-19T03:23:56.030Z,100.00
2022-10-19T03:26:22.911Z,100.00
2022-10-19T03:28:49.903Z,100.00
2022-10-19T03:31:16.949Z,100.00
2022-10-19T03:33:43.952Z,100.00
2022-10-19T03:36:28.084Z,100.00
2022-10-19T03:38:58.452Z,100.00
2022-10-19T03:41:30.286Z,100.00
2022-10-19T03:43:57.828Z,100.00
2022-10-19T03:46:25.167Z,100.00
2022-10-19T03:48:53.025Z,100.00
2022-10-19T03:51:24.679Z,100.00
2022-10-19T03:54:03.682Z,100.00
2022-10-19T03:56:32.741Z,100.00
2022-10-19T03:59:02.133Z,100.00
2022-10-19T04:01:43.319Z,100.00
2022-10-19T04:04:15.168Z,100.00
2022-10-19T04:06:45.187Z,100.00
2022-10-19T04:09:16.351Z,100.00
2022-10-19T04:11:43.866Z,100.00
2022-10-19T04:14:22.705Z,100.00
2022-10-19T04:16:59.276Z,100.00
2022-10-19T04:19:26.446Z,100.00
2022-10-19T04:21:53.381Z,100.00
2022-10-19T04:24:20.429Z,100.00
2022-10-19T04:26:54.191Z,100.00
2022-10-19T04:29:27.953Z,100.00
2022-10-19T04:31:57.082Z,100.00
2022-10-19T04:34:24.233Z,100.00
2022-10-19T04:36:51.200Z,100.00
2022-10-19T04:39:18.139Z,100.00
2022-10-19T04:41:45.091Z,100.00
2022-10-19T04:44:12.100Z,100.00
2022-10-19T04:46:39.258Z,100.00
2022-10-19T04:49:06.853Z,100.00
2022-10-19T04:51:34.741Z,100.00
2022-10-19T04:54:03.539Z,100.00
2022-10-19T04:56:32.241Z,100.00
2022-10-19T04:59:00.570Z,100.00
2022-10-19T05:01:31.202Z,100.00
2022-10-19T05:04:01.658Z,100.00
2022-10-19T05:06:30.518Z,100.00
2022-10-19T05:08:57.617Z,100.00
2022-10-19T05:11:24.861Z,100.00
2022-10-19T05:13:51.988Z,100.00
2022-10-19T05:16:22.119Z,100.00
2022-10-19T05:18:58.844Z,100.00
2022-10-19T05:21:28.532Z,100.00
2022-10-19T05:23:57.253Z,100.00
2022-10-19T05:26:27.911Z,100.00
2022-10-19T05:29:02.738Z,100.00
2022-10-19T05:31:32.705Z,100.00
2022-10-19T05:34:00.896Z,100.00
2022-10-19T05:36:34.515Z,100.00
2022-10-19T05:39:08.414Z,100.00
2022-10-19T05:41:35.464Z,100.00
2022-10-19T05:44:04.011Z,100.00
2022-10-19T05:46:32.552Z,100.00
2022-10-19T05:48:59.963Z,100.00
2022-10-19T05:51:28.454Z,100.00
2022-10-19T05:53:56.836Z,100.00
2022-10-19T05:56:28.548Z,100.00
2022-10-19T05:58:57.312Z,100.00
2022-10-19T06:01:24.703Z,100.00
2022-10-19T06:03:54.296Z,100.00
2022-10-19T06:06:21.506Z,100.00
2022-10-19T06:08:49.249Z,100.00
2022-10-19T06:11:23.849Z,100.00
2022-10-19T06:13:53.367Z,100.00
2022-10-19T06:16:21.435Z,100.00
2022-10-19T06:18:48.385Z,100.00
2022-10-19T06:21:19.358Z,100.00
2022-10-19T06:23:52.006Z,100.00
2022-10-19T06:26:19.935Z,100.00
2022-10-19T06:28:47.797Z,100.00
2022-10-19T06:31:15.372Z,100.00
2022-10-19T06:33:48.628Z,100.00
2022-10-19T06:36:23.420Z,100.00
2022-10-19T06:38:51.082Z,100.00
2022-10-19T06:41:18.014Z,100.00
2022-10-19T06:43:52.503Z,100.00
2022-10-19T06:46:24.280Z,100.00
2022-10-19T06:49:00.590Z,100.00
2022-10-19T06:51:30.481Z,100.00
2022-10-19T06:53:57.757Z,100.00
2022-10-19T06:56:26.595Z,100.00
2022-10-19T06:58:55.144Z,100.00
2022-10-19T07:01:22.541Z,100.00
2022-10-19T07:03:51.957Z,100.00
2022-10-19T07:06:19.274Z,100.00
2022-10-19T07:08:46.301Z,100.00
2022-10-19T07:11:19.416Z,100.00
2022-10-19T07:13:46.356Z,100.00
2022-10-19T07:16:20.793Z,100.00
2022-10-19T07:18:51.120Z,100.00
2022-10-19T07:21:20.642Z,100.00
2022-10-19T07:23:48.075Z,100.00
2022-10-19T07:26:20.956Z,100.00
2022-10-19T07:28:48.948Z,100.00
2022-10-19T07:31:20.812Z,100.00
2022-10-19T07:33:55.238Z,100.00
2022-10-19T07:36:23.706Z,100.00
2022-10-19T07:38:50.995Z,100.00
2022-10-19T07:41:22.036Z,100.00
2022-10-19T07:43:50.238Z,100.00
2022-10-19T07:46:20.184Z,100.00
2022-10-19T07:48:48.297Z,100.00
2022-10-19T07:51:17.335Z,100.00
2022-10-19T07:53:45.233Z,100.00
2022-10-19T07:56:24.133Z,100.00
2022-10-19T07:58:55.195Z,100.00
2022-10-19T08:01:31.543Z,100.00
2022-10-19T08:06:47.430Z,100.00
2022-10-19T08:09:33.447Z,100.00
2022-10-19T08:12:02.476Z,100.00
2022-10-19T08:14:29.354Z,100.00
2022-10-19T08:16:56.260Z,100.00
2022-10-19T08:19:24.242Z,100.00
2022-10-19T08:21:51.345Z,100.00
2022-10-19T08:24:19.806Z,100.00
2022-10-19T08:26:47.393Z,100.00
2022-10-19T08:29:17.612Z,100.00
2022-10-19T08:31:46.857Z,100.00
2022-10-19T08:34:15.132Z,100.00
2022-10-19T08:39:14.463Z,100.00
2022-10-19T08:44:59.622Z,100.00
2022-10-19T08:47:44.333Z,100.00
2022-10-19T08:50:20.547Z,100.00
2022-10-19T08:53:04.387Z,100.00
2022-10-19T08:56:51.407Z,100.00
2022-10-19T08:59:47.015Z,100.00
2022-10-19T09:02:42.714Z,100.00
2022-10-19T09:05:29.048Z,100.00
2022-10-19T09:07:56.178Z,99.52
2022-10-19T09:10:29.029Z,99.55
2022-10-19T09:13:41.442Z,99.40
2022-10-19T09:16:21.082Z,99.71
2022-10-19T09:18:49.317Z,99.79
2022-10-19T09:21:30.987Z,96.46
2022-10-19T09:24:30.687Z,96.35
2022-10-19T09:27:01.205Z,95.86
2022-10-19T09:29:59.462Z,94.77
2022-10-19T09:32:33.826Z,94.41
2022-10-19T09:35:24.108Z,94.39
2022-10-19T09:37:52.229Z,93.97
2022-10-19T09:40:24.710Z,93.48
2022-10-19T09:42:57.037Z,93.63
2022-10-19T09:45:53.611Z,94.54
2022-10-19T09:48:41.776Z,93.65
2022-10-19T09:51:15.283Z,92.50
2022-10-19T09:53:55.540Z,92.65
2022-10-19T09:56:27.470Z,93.12
2022-10-19T09:58:58.932Z,92.13
2022-10-19T10:01:43.353Z,92.42
2022-10-19T10:04:16.463Z,91.11
2022-10-19T10:06:47.290Z,91.33
2022-10-19T10:09:22.829Z,92.72
2022-10-19T10:11:51.503Z,93.71
2022-10-19T10:14:37.467Z,93.86
2022-10-19T10:17:22.749Z,93.48
2022-10-19T10:20:30.278Z,93.37
2022-10-19T10:23:04.460Z,93.67
2022-10-19T10:25:36.437Z,92.03
2022-10-19T10:28:17.984Z,92.02
2022-10-19T10:30:47.355Z,91.85
2022-10-19T10:33:27.292Z,91.62
2022-10-19T10:36:09.855Z,90.54
2022-10-19T10:38:47.507Z,90.10
2022-10-19T10:41:23.890Z,87.93
2022-10-19T10:44:06.739Z,88.50
2022-10-19T10:46:52.704Z,88.39
2022-10-19T10:49:34.167Z,88.94
2022-10-19T10:52:07.238Z,89.24
2022-10-19T10:54:34.359Z,89.37
2022-10-19T10:57:15.760Z,90.73
2022-10-19T11:00:04.128Z,90.92
2022-10-19T11:03:00.745Z,90.39
2022-10-19T11:05:41.861Z,88.83
2022-10-19T11:08:34.194Z,88.15
2022-10-19T11:11:14.045Z,87.28
2022-10-19T11:13:59.645Z,88.56
2022-10-19T11:16:38.744Z,88.77
2022-10-19T11:19:25.762Z,87.97
2022-10-19T11:22:10.776Z,85.97
2022-10-19T11:24:59.736Z,82.96
2022-10-19T11:27:53.142Z,81.96
2022-10-19T11:30:23.372Z,81.44
2022-10-19T11:33:38.387Z,72.33
2022-10-19T11:36:46.934Z,71.28
2022-10-19T11:39:34.389Z,70.12
2022-10-19T11:42:13.048Z,70.06
2022-10-19T11:45:27.445Z,69.79
2022-10-19T11:48:14.737Z,70.89
2022-10-19T11:51:20.564Z,70.08
2022-10-19T11:54:21.613Z,70.61
2022-10-19T11:57:11.607Z,71.53
2022-10-19T12:00:04.075Z,72.07
2022-10-19T12:03:07.394Z,71.57
2022-10-19T12:05:52.061Z,70.73
2022-10-19T12:08:22.799Z,68.81
2022-10-19T12:11:28.715Z,68.07
2022-10-19T12:14:08.207Z,67.80
2022-10-19T12:16:44.175Z,66.77
2022-10-19T12:19:22.389Z,65.91
2022-10-19T12:21:54.477Z,66.95
2022-10-19T12:24:25.093Z,65.97
2022-10-19T12:26:54.835Z,65.71
2022-10-19T12:29:40.802Z,64.71
2022-10-19T12:32:11.909Z,63.17
2022-10-19T12:35:08.965Z,62.71
2022-10-19T12:37:55.686Z,61.36
2022-10-19T12:40:31.612Z,61.31
2022-10-19T12:43:21.119Z,61.65
2022-10-19T12:46:28.645Z,61.73
2022-10-19T12:49:30.705Z,60.52
2022-10-19T12:52:00.514Z,60.62
2022-10-19T12:54:31.221Z,61.21
2022-10-19T12:57:01.162Z,62.03
2022-10-19T12:59:32.825Z,62.87
2022-10-19T13:02:01.559Z,63.13
2022-10-19T13:04:34.417Z,63.57
2022-10-19T13:07:08.162Z,64.29
2022-10-19T13:09:41.993Z,65.19
2022-10-19T13:12:19.438Z,66.44
2022-10-19T13:14:51.339Z,67.10
2022-10-19T13:17:43.674Z,67.29
2022-10-19T13:20:14.170Z,68.17
2022-10-19T13:22:45.779Z,68.36
2022-10-19T13:25:37.491Z,69.68
2022-10-19T13:28:07.578Z,69.13
2022-10-19T13:30:41.826Z,68.94
2022-10-19T13:33:38.928Z,67.95
2022-10-19T13:36:08.282Z,68.16
2022-10-19T13:38:39.337Z,66.99
2022-10-19T13:41:13.438Z,67.58
2022-10-19T13:44:04.253Z,68.30
2022-10-19T13:46:31.286Z,68.13
2022-10-19T13:49:51.021Z,68.38
2022-10-19T13:53:10.881Z,68.81
2022-10-19T13:56:05.345Z,68.58
2022-10-19T13:59:00.151Z,68.35
2022-10-19T14:01:59.004Z,69.22
2022-10-19T14:04:59.850Z,69.04
2022-10-19T14:07:33.517Z,69.52
2022-10-19T14:10:18.854Z,69.49
2022-10-19T14:12:47.249Z,69.04
2022-10-19T14:15:35.573Z,68.95
2022-10-19T14:18:05.856Z,69.22
2022-10-19T14:20:38.224Z,69.89
2022-10-19T14:23:20.318Z,69.98
2022-10-19T14:25:52.458Z,69.12
2022-10-19T14:28:19.874Z,69.14
2022-10-19T14:31:02.509Z,69.34
2022-10-19T14:33:36.699Z,69.80
2022-10-19T14:36:08.112Z,69.83
2022-10-19T14:38:43.391Z,69.80
2022-10-19T14:41:30.793Z,69.64
2022-10-19T14:43:59.732Z,70.45
2022-10-19T14:46:33.812Z,70.59
2022-10-19T14:49:04.194Z,71.26
2022-10-19T14:51:42.013Z,71.93
2022-10-19T14:54:37.596Z,72.28
2022-10-19T14:57:24.787Z,73.51
2022-10-19T15:00:04.230Z,73.46
2022-10-19T15:02:39.183Z,73.83
2022-10-19T15:05:20.579Z,74.51
2022-10-19T15:07:48.617Z,74.59
2022-10-19T15:10:41.566Z,75.34
2022-10-19T15:13:33.941Z,74.62
2022-10-19T15:16:01.312Z,74.55
2022-10-19T15:18:49.651Z,74.37
2022-10-19T15:21:21.544Z,74.84
2022-10-19T15:23:52.881Z,75.42
2022-10-19T15:26:29.907Z,75.33
2022-10-19T15:29:10.269Z,74.34
2022-10-19T15:31:37.519Z,73.48
2022-10-19T15:34:05.343Z,74.15
2022-10-19T15:36:32.878Z,73.84
2022-10-19T15:39:25.229Z,74.20
2022-10-19T15:41:53.002Z,74.34
2022-10-19T15:44:49.353Z,73.77
2022-10-19T15:47:16.649Z,74.13
2022-10-19T15:49:44.249Z,74.51
2022-10-19T15:52:33.263Z,74.97
2022-10-19T15:55:01.241Z,76.20
2022-10-19T15:57:37.080Z,76.91
2022-10-19T16:00:17.397Z,77.33
2022-10-19T16:02:44.748Z,78.65
2022-10-19T16:05:11.740Z,79.21
2022-10-19T16:07:41.323Z,79.63
2022-10-19T16:10:15.790Z,80.09
2022-10-19T16:12:42.957Z,80.48
2022-10-19T16:15:23.366Z,80.65
2022-10-19T16:17:57.478Z,81.30
2022-10-19T16:20:26.423Z,81.43
2022-10-19T16:22:53.835Z,81.83
2022-10-19T16:25:21.110Z,82.22
2022-10-19T16:27:48.271Z,82.54
2022-10-19T16:30:15.272Z,82.85
2022-10-19T16:35:14.152Z,83.88
2022-10-19T16:37:41.043Z,83.85
2022-10-19T16:40:10.047Z,84.49
2022-10-19T16:42:37.421Z,85.20
2022-10-19T16:45:04.926Z,85.38
2022-10-19T16:47:32.072Z,85.53
2022-10-19T16:50:01.760Z,86.31
2022-10-19T16:52:31.609Z,86.80
2022-10-19T16:54:59.785Z,86.90
2022-10-19T16:57:26.722Z,87.33
2022-10-19T16:59:54.388Z,87.42
2022-10-19T17:02:22.376Z,87.88
2022-10-19T17:04:49.587Z,88.45
2022-10-19T17:07:17.175Z,88.18
2022-10-19T17:09:44.337Z,88.07
2022-10-19T17:12:12.037Z,88.53
2022-10-19T17:14:41.673Z,88.69
2022-10-19T17:17:10.379Z,89.14
2022-10-19T17:19:37.887Z,89.15
2022-10-19T17:22:05.496Z,88.94
2022-10-19T17:24:32.577Z,89.52
2022-10-19T17:27:03.258Z,89.53
2022-10-19T17:29:30.620Z,89.57
2022-10-19T17:31:58.653Z,90.23
2022-10-19T17:34:27.256Z,90.32
2022-10-19T17:36:54.349Z,90.42
2022-10-19T17:39:27.230Z,91.33
2022-10-19T17:42:02.122Z,90.89
2022-10-19T17:44:30.612Z,90.98
2022-10-19T17:46:57.903Z,91.04
2022-10-19T17:49:24.898Z,91.34
2022-10-19T17:51:53.589Z,92.15
2022-10-19T17:54:20.642Z,92.50
2022-10-19T17:56:47.767Z,92.63
2022-10-19T17:59:14.945Z,93.04
2022-10-19T18:01:42.193Z,92.76
2022-10-19T18:04:09.164Z,93.01
2022-10-19T18:06:38.173Z,93.69
2022-10-19T18:09:08.895Z,93.73
2022-10-19T18:11:40.950Z,94.46
2022-10-19T18:14:09.887Z,94.37
2022-10-19T18:16:45.267Z,94.71
2022-10-19T18:19:16.713Z,94.74
2022-10-19T18:21:46.047Z,94.72
2022-10-19T18:24:19.339Z,95.25
2022-10-19T18:26:48.428Z,95.59
2022-10-19T18:29:26.035Z,95.34
2022-10-19T18:31:53.343Z,95.42
2022-10-19T18:34:23.729Z,95.65
2022-10-19T18:36:51.754Z,95.98
2022-10-19T18:39:19.655Z,96.31
2022-10-19T18:41:48.199Z,97.04
2022-10-19T18:44:15.242Z,96.96
2022-10-19T18:46:42.239Z,97.29
2022-10-19T18:49:11.156Z,97.34
2022-10-19T18:51:38.528Z,97.53
2022-10-19T18:54:06.004Z,97.99
2022-10-19T18:56:36.573Z,97.93
2022-10-19T18:59:05.021Z,98.04
2022-10-19T19:01:32.210Z,98.00
2022-10-19T19:04:07.160Z,98.33
2022-10-19T19:06:36.206Z,98.16
2022-10-19T19:09:08.670Z,98.03
2022-10-19T19:11:38.410Z,97.95
2022-10-19T19:14:13.678Z,98.18
2022-10-19T19:16:42.423Z,100.00
2022-10-19T19:19:12.668Z,100.00
2022-10-19T19:21:43.511Z,100.00
2022-10-19T19:24:14.461Z,99.52
2022-10-19T19:26:46.673Z,99.09
2022-10-19T19:29:14.271Z,98.37
2022-10-19T19:31:41.233Z,97.51
2022-10-19T19:34:09.435Z,97.43
2022-10-19T19:36:46.335Z,97.42
2022-10-19T19:39:15.616Z,97.54
2022-10-19T19:41:43.403Z,97.65
2022-10-19T19:44:10.694Z,97.59
2022-10-19T19:46:38.369Z,97.45
2022-10-19T19:49:05.802Z,97.84
2022-10-19T19:51:33.573Z,97.82
2022-10-19T19:54:00.701Z,97.63
2022-10-19T19:56:28.827Z,97.95
2022-10-19T19:58:58.614Z,97.95
2022-10-19T20:01:27.013Z,97.64
2022-10-19T20:03:55.026Z,97.80
2022-10-19T20:06:25.167Z,99.12
2022-10-19T20:08:54.823Z,100.00
2022-10-19T20:11:22.349Z,98.52
2022-10-19T20:13:49.883Z,97.55
2022-10-19T20:16:22.815Z,97.22
2022-10-19T20:19:20.370Z,97.38
2022-10-19T20:21:47.316Z,98.07
2022-10-19T20:24:14.335Z,98.47
2022-10-19T20:26:41.331Z,98.63
2022-10-19T20:29:08.329Z,99.01
2022-10-19T20:31:39.555Z,99.61
2022-10-19T20:34:09.535Z,99.83
2022-10-19T20:36:36.592Z,100.00
2022-10-19T20:39:04.050Z,100.00
2022-10-19T20:41:30.966Z,100.00
2022-10-19T20:43:58.391Z,100.00
2022-10-19T20:46:30.402Z,100.00
2022-10-19T20:49:00.283Z,100.00
2022-10-19T20:51:32.591Z,100.00
2022-10-19T20:54:02.813Z,100.00
2022-10-19T20:56:33.567Z,100.00
2022-10-19T20:59:04.194Z,100.00
2022-10-19T21:01:34.217Z,100.00
2022-10-19T21:04:04.822Z,100.00
2022-10-19T21:06:35.128Z,100.00
2022-10-19T21:09:02.445Z,100.00
2022-10-19T21:11:35.108Z,100.00
2022-10-19T21:14:06.610Z,100.00
2022-10-19T21:16:34.068Z,100.00
2022-10-19T21:19:03.746Z,100.00
2022-10-19T21:21:44.108Z,100.00
2022-10-19T21:24:20.669Z,100.00
2022-10-19T21:26:48.418Z,100.00
2022-10-19T21:29:16.381Z,100.00
2022-10-19T21:31:49.319Z,100.00
2022-10-19T21:34:26.765Z,100.00
2022-10-19T21:36:54.910Z,100.00
2022-10-19T21:39:22.664Z,100.00
2022-10-19T21:41:50.203Z,100.00
2022-10-19T21:44:18.837Z,100.00
2022-10-19T21:46:48.012Z,100.00
2022-10-19T21:49:15.242Z,100.00
2022-10-19T21:51:53.983Z,100.00
2022-10-19T21:54:29.012Z,100.00
2022-10-19T21:56:57.703Z,100.00
2022-10-19T21:59:25.389Z,100.00
2022-10-19T22:01:54.553Z,100.00
2022-10-19T22:04:22.158Z,100.00
2022-10-19T22:06:49.377Z,100.00
2022-10-19T22:09:20.758Z,100.00
2022-10-19T22:11:48.705Z,100.00
2022-10-19T22:14:17.005Z,100.00
2022-10-19T22:16:44.824Z,100.00
2022-10-19T22:19:13.080Z,100.00
2022-10-19T22:21:40.425Z,100.00
2022-10-19T22:24:13.011Z,100.00
2022-10-19T22:26:44.289Z,100.00
2022-10-19T22:29:11.779Z,100.00
2022-10-19T22:31:39.213Z,100.00
2022-10-19T22:34:10.724Z,100.00
2022-10-19T22:36:38.036Z,100.00
2022-10-19T22:39:06.032Z,100.00
2022-10-19T22:41:32.992Z,100.00
2022-10-19T22:43:59.944Z,100.00
2022-10-19T22:46:26.907Z,100.00
2022-10-19T22:48:53.878Z,100.00
2022-10-19T22:51:20.841Z,100.00
2022-10-19T22:53:47.866Z,100.00
2022-10-19T22:56:14.952Z,100.00
2022-10-19T22:58:41.842Z,100.00
2022-10-19T23:01:12.856Z,100.00
2022-10-19T23:03:40.562Z,100.00
2022-10-19T23:06:10.125Z,100.00
2022-10-19T23:08:37.289Z,100.00
2022-10-19T23:11:04.798Z,100.00
2022-10-19T23:13:31.978Z,100.00
2022-10-19T23:15:58.932Z,100.00
2022-10-19T23:18:26.026Z,100.00
2022-10-19T23:21:02.482Z,100.00
2022-10-19T23:23:31.769Z,100.00
2022-10-19T23:26:12.533Z,100.00
2022-10-19T23:28:42.451Z,100.00
2022-10-19T23:31:15.491Z,100.00
2022-10-19T23:33:43.592Z,100.00
2022-10-19T23:36:27.666Z,100.00
2022-10-19T23:38:56.606Z,100.00
2022-10-19T23:41:23.789Z,100.00
2022-10-19T23:43:50.889Z,100.00
2022-10-19T23:46:18.089Z,100.00
2022-10-19T23:48:45.035Z,100.00
2022-10-19T23:51:19.208Z,100.00
2022-10-19T23:53:48.720Z,100.00
2022-10-19T23:56:28.424Z,100.00
2022-10-19T23:58:56.134Z,100.00
